sensor_id;sensor_type;location;lat;lon;timestamp;P1;durP1;ratioP1;P2;durP2;ratioP2
46322;SDS011;32044;52.386;13.278;2023-05-10T00:01:12;7.10;;;5.38;;
46322;SDS011;32044;52.386;13.278;2023-05-10T00:03:39;7.55;;;5.68;;
46322;SDS011;32044;52.386;13.278;2023-05-10T00:06:07;10.52;;;6.00;;
46322;SDS011;32044;52.386;13.278;2023-05-10T00:08:34;13.70;;;5.78;;
46322;SDS011;32044;52.386;13.278;2023-05-10T00:11:02;10.18;;;5.95;;
46322;SDS011;32044;52.386;13.278;2023-05-10T00:13:31;9.52;;;6.57;;
46322;SDS011;32044;52.386;13.278;2023-05-10T00:16:00;7.38;;;5.50;;
46322;SDS011;32044;52.386;13.278;2023-05-10T00:18:27;10.23;;;5.75;;
46322;SDS011;32044;52.386;13.278;2023-05-10T00:20:55;11.18;;;6.72;;
46322;SDS011;32044;52.386;13.278;2023-05-10T00:23:22;9.05;;;6.65;;
46322;SDS011;32044;52.386;13.278;2023-05-10T00:25:49;7.93;;;6.47;;
46322;SDS011;32044;52.386;13.278;2023-05-10T00:28:17;9.73;;;6.40;;
46322;SDS011;32044;52.386;13.278;2023-05-10T00:30:44;8.57;;;5.63;;
46322;SDS011;32044;52.386;13.278;2023-05-10T00:33:13;8.50;;;6.13;;
46322;SDS011;32044;52.386;13.278;2023-05-10T00:35:41;8.57;;;6.50;;
46322;SDS011;32044;52.386;13.278;2023-05-10T00:38:08;6.95;;;5.72;;
46322;SDS011;32044;52.386;13.278;2023-05-10T00:40:36;12.63;;;5.85;;
46322;SDS011;32044;52.386;13.278;2023-05-10T00:43:03;9.00;;;6.20;;
46322;SDS011;32044;52.386;13.278;2023-05-10T00:45:31;9.63;;;6.10;;
46322;SDS011;32044;52.386;13.278;2023-05-10T00:48:00;8.77;;;6.30;;
46322;SDS011;32044;52.386;13.278;2023-05-10T00:50:30;10.77;;;6.47;;
46322;SDS011;32044;52.386;13.278;2023-05-10T00:52:58;8.15;;;6.40;;
46322;SDS011;32044;52.386;13.278;2023-05-10T00:55:26;7.05;;;6.18;;
46322;SDS011;32044;52.386;13.278;2023-05-10T00:57:54;10.07;;;6.22;;
46322;SDS011;32044;52.386;13.278;2023-05-10T01:00:21;8.77;;;5.80;;
46322;SDS011;32044;52.386;13.278;2023-05-10T01:02:49;9.45;;;6.43;;
46322;SDS011;32044;52.386;13.278;2023-05-10T01:05:17;7.90;;;5.97;;
46322;SDS011;32044;52.386;13.278;2023-05-10T01:07:46;10.50;;;6.57;;
46322;SDS011;32044;52.386;13.278;2023-05-10T01:10:22;9.55;;;5.90;;
46322;SDS011;32044;52.386;13.278;2023-05-10T01:12:50;12.70;;;6.65;;
46322;SDS011;32044;52.386;13.278;2023-05-10T01:15:17;9.07;;;6.50;;
46322;SDS011;32044;52.386;13.278;2023-05-10T01:17:45;10.77;;;6.88;;
46322;SDS011;32044;52.386;13.278;2023-05-10T01:20:14;10.32;;;5.97;;
46322;SDS011;32044;52.386;13.278;2023-05-10T01:22:50;10.88;;;6.95;;
46322;SDS011;32044;52.386;13.278;2023-05-10T01:25:44;13.20;;;7.05;;
46322;SDS011;32044;52.386;13.278;2023-05-10T01:28:49;11.70;;;6.85;;
46322;SDS011;32044;52.386;13.278;2023-05-10T01:31:30;11.27;;;6.75;;
46322;SDS011;32044;52.386;13.278;2023-05-10T01:34:03;9.43;;;6.85;;
46322;SDS011;32044;52.386;13.278;2023-05-10T01:36:35;11.25;;;6.65;;
46322;SDS011;32044;52.386;13.278;2023-05-10T01:39:07;14.90;;;7.53;;
46322;SDS011;32044;52.386;13.278;2023-05-10T01:41:40;12.15;;;7.32;;
46322;SDS011;32044;52.386;13.278;2023-05-10T01:44:15;11.98;;;7.05;;
46322;SDS011;32044;52.386;13.278;2023-05-10T01:46:45;10.65;;;6.85;;
46322;SDS011;32044;52.386;13.278;2023-05-10T01:49:19;10.98;;;6.60;;
46322;SDS011;32044;52.386;13.278;2023-05-10T01:51:50;12.05;;;7.45;;
46322;SDS011;32044;52.386;13.278;2023-05-10T01:54:21;12.70;;;7.93;;
46322;SDS011;32044;52.386;13.278;2023-05-10T01:56:50;12.57;;;7.80;;
46322;SDS011;32044;52.386;13.278;2023-05-10T01:59:20;11.90;;;7.05;;
46322;SDS011;32044;52.386;13.278;2023-05-10T02:01:48;12.65;;;7.38;;
46322;SDS011;32044;52.386;13.278;2023-05-10T02:04:18;10.93;;;7.50;;
46322;SDS011;32044;52.386;13.278;2023-05-10T02:06:46;10.82;;;7.25;;
46322;SDS011;32044;52.386;13.278;2023-05-10T02:09:15;9.73;;;7.20;;
46322;SDS011;32044;52.386;13.278;2023-05-10T02:11:43;10.40;;;7.95;;
46322;SDS011;32044;52.386;13.278;2023-05-10T02:14:11;11.45;;;7.47;;
46322;SDS011;32044;52.386;13.278;2023-05-10T02:16:39;12.38;;;7.40;;
46322;SDS011;32044;52.386;13.278;2023-05-10T02:19:07;10.93;;;7.25;;
46322;SDS011;32044;52.386;13.278;2023-05-10T02:21:37;14.77;;;7.30;;
46322;SDS011;32044;52.386;13.278;2023-05-10T02:24:06;14.18;;;7.88;;
46322;SDS011;32044;52.386;13.278;2023-05-10T02:26:35;12.10;;;6.60;;
46322;SDS011;32044;52.386;13.278;2023-05-10T02:29:03;11.43;;;7.40;;
46322;SDS011;32044;52.386;13.278;2023-05-10T02:31:32;10.98;;;7.65;;
46322;SDS011;32044;52.386;13.278;2023-05-10T02:34:01;13.07;;;7.43;;
46322;SDS011;32044;52.386;13.278;2023-05-10T02:36:28;12.63;;;7.35;;
46322;SDS011;32044;52.386;13.278;2023-05-10T02:38:59;15.60;;;7.68;;
46322;SDS011;32044;52.386;13.278;2023-05-10T02:41:29;10.43;;;7.57;;
46322;SDS011;32044;52.386;13.278;2023-05-10T02:43:59;12.45;;;7.22;;
46322;SDS011;32044;52.386;13.278;2023-05-10T02:46:28;10.65;;;7.53;;
46322;SDS011;32044;52.386;13.278;2023-05-10T02:48:56;10.10;;;7.10;;
46322;SDS011;32044;52.386;13.278;2023-05-10T02:51:24;11.65;;;8.50;;
46322;SDS011;32044;52.386;13.278;2023-05-10T02:53:53;10.73;;;7.55;;
46322;SDS011;32044;52.386;13.278;2023-05-10T02:56:23;12.18;;;7.95;;
46322;SDS011;32044;52.386;13.278;2023-05-10T02:58:52;7.32;;;5.35;;
46322;SDS011;32044;52.386;13.278;2023-05-10T03:01:19;10.73;;;7.32;;
46322;SDS011;32044;52.386;13.278;2023-05-10T03:03:47;8.73;;;7.15;;
46322;SDS011;32044;52.386;13.278;2023-05-10T03:06:15;10.82;;;7.60;;
46322;SDS011;32044;52.386;13.278;2023-05-10T03:08:42;11.52;;;7.68;;
46322;SDS011;32044;52.386;13.278;2023-05-10T03:11:25;10.43;;;7.93;;
46322;SDS011;32044;52.386;13.278;2023-05-10T03:14:02;11.18;;;7.20;;
46322;SDS011;32044;52.386;13.278;2023-05-10T03:16:38;11.68;;;7.82;;
46322;SDS011;32044;52.386;13.278;2023-05-10T03:19:11;8.88;;;7.63;;
46322;SDS011;32044;52.386;13.278;2023-05-10T03:21:41;12.17;;;7.73;;
46322;SDS011;32044;52.386;13.278;2023-05-10T03:24:11;12.43;;;7.88;;
46322;SDS011;32044;52.386;13.278;2023-05-10T03:26:42;11.00;;;7.15;;
46322;SDS011;32044;52.386;13.278;2023-05-10T03:29:11;11.55;;;7.30;;
46322;SDS011;32044;52.386;13.278;2023-05-10T03:31:39;12.10;;;6.88;;
46322;SDS011;32044;52.386;13.278;2023-05-10T03:34:07;10.02;;;7.45;;
46322;SDS011;32044;52.386;13.278;2023-05-10T03:36:34;10.07;;;6.68;;
46322;SDS011;32044;52.386;13.278;2023-05-10T03:39:02;9.48;;;7.30;;
46322;SDS011;32044;52.386;13.278;2023-05-10T03:41:29;9.27;;;7.43;;
46322;SDS011;32044;52.386;13.278;2023-05-10T03:43:58;12.43;;;7.10;;
46322;SDS011;32044;52.386;13.278;2023-05-10T03:46:26;12.57;;;6.90;;
46322;SDS011;32044;52.386;13.278;2023-05-10T03:48:53;9.15;;;7.00;;
46322;SDS011;32044;52.386;13.278;2023-05-10T03:51:21;10.15;;;7.47;;
46322;SDS011;32044;52.386;13.278;2023-05-10T03:53:49;13.73;;;7.22;;
46322;SDS011;32044;52.386;13.278;2023-05-10T03:56:16;10.80;;;7.32;;
46322;SDS011;32044;52.386;13.278;2023-05-10T03:58:44;11.23;;;7.55;;
46322;SDS011;32044;52.386;13.278;2023-05-10T04:01:12;9.60;;;6.80;;
46322;SDS011;32044;52.386;13.278;2023-05-10T04:03:40;10.30;;;6.93;;
46322;SDS011;32044;52.386;13.278;2023-05-10T04:06:07;10.88;;;6.80;;
46322;SDS011;32044;52.386;13.278;2023-05-10T04:08:37;11.45;;;7.20;;
46322;SDS011;32044;52.386;13.278;2023-05-10T04:11:05;8.80;;;6.35;;
46322;SDS011;32044;52.386;13.278;2023-05-10T04:13:33;11.75;;;6.72;;
46322;SDS011;32044;52.386;13.278;2023-05-10T04:16:01;11.38;;;6.35;;
46322;SDS011;32044;52.386;13.278;2023-05-10T04:18:31;12.77;;;6.93;;
46322;SDS011;32044;52.386;13.278;2023-05-10T04:20:58;9.15;;;6.18;;
46322;SDS011;32044;52.386;13.278;2023-05-10T04:23:26;12.02;;;6.88;;
46322;SDS011;32044;52.386;13.278;2023-05-10T04:25:58;14.05;;;6.65;;
46322;SDS011;32044;52.386;13.278;2023-05-10T04:28:26;10.55;;;6.65;;
46322;SDS011;32044;52.386;13.278;2023-05-10T04:31:00;9.35;;;6.60;;
46322;SDS011;32044;52.386;13.278;2023-05-10T04:33:28;11.10;;;6.25;;
46322;SDS011;32044;52.386;13.278;2023-05-10T04:35:57;12.10;;;6.25;;
46322;SDS011;32044;52.386;13.278;2023-05-10T04:38:25;11.48;;;6.82;;
46322;SDS011;32044;52.386;13.278;2023-05-10T04:40:53;13.63;;;6.32;;
46322;SDS011;32044;52.386;13.278;2023-05-10T04:43:20;8.75;;;5.63;;
46322;SDS011;32044;52.386;13.278;2023-05-10T04:45:48;9.90;;;6.40;;
46322;SDS011;32044;52.386;13.278;2023-05-10T04:48:16;7.68;;;5.55;;
46322;SDS011;32044;52.386;13.278;2023-05-10T04:50:43;8.40;;;5.70;;
46322;SDS011;32044;52.386;13.278;2023-05-10T04:53:12;9.18;;;5.65;;
46322;SDS011;32044;52.386;13.278;2023-05-10T04:55:41;10.65;;;5.95;;
46322;SDS011;32044;52.386;13.278;2023-05-10T04:58:08;9.55;;;6.00;;
46322;SDS011;32044;52.386;13.278;2023-05-10T05:00:36;8.32;;;5.63;;
46322;SDS011;32044;52.386;13.278;2023-05-10T05:03:03;10.45;;;6.15;;
46322;SDS011;32044;52.386;13.278;2023-05-10T05:05:31;10.63;;;5.85;;
46322;SDS011;32044;52.386;13.278;2023-05-10T05:07:58;10.82;;;5.90;;
46322;SDS011;32044;52.386;13.278;2023-05-10T05:10:28;12.68;;;5.80;;
46322;SDS011;32044;52.386;13.278;2023-05-10T05:12:56;10.10;;;5.82;;
46322;SDS011;32044;52.386;13.278;2023-05-10T05:15:23;7.38;;;5.10;;
46322;SDS011;32044;52.386;13.278;2023-05-10T05:17:51;9.48;;;5.70;;
46322;SDS011;32044;52.386;13.278;2023-05-10T05:20:18;8.10;;;5.32;;
46322;SDS011;32044;52.386;13.278;2023-05-10T05:22:46;9.13;;;5.28;;
46322;SDS011;32044;52.386;13.278;2023-05-10T05:25:13;9.85;;;5.35;;
46322;SDS011;32044;52.386;13.278;2023-05-10T05:27:42;9.55;;;4.93;;
46322;SDS011;32044;52.386;13.278;2023-05-10T05:30:10;8.52;;;4.90;;
46322;SDS011;32044;52.386;13.278;2023-05-10T05:32:38;6.70;;;4.57;;
46322;SDS011;32044;52.386;13.278;2023-05-10T05:35:06;12.00;;;4.63;;
46322;SDS011;32044;52.386;13.278;2023-05-10T05:37:34;8.27;;;4.75;;
46322;SDS011;32044;52.386;13.278;2023-05-10T05:40:03;11.30;;;4.68;;
46322;SDS011;32044;52.386;13.278;2023-05-10T05:42:32;5.47;;;4.20;;
46322;SDS011;32044;52.386;13.278;2023-05-10T05:45:10;14.32;;;4.88;;
46322;SDS011;32044;52.386;13.278;2023-05-10T05:47:39;7.60;;;4.47;;
46322;SDS011;32044;52.386;13.278;2023-05-10T05:50:07;8.10;;;4.32;;
46322;SDS011;32044;52.386;13.278;2023-05-10T05:52:35;6.47;;;4.20;;
46322;SDS011;32044;52.386;13.278;2023-05-10T05:55:03;8.38;;;3.88;;
46322;SDS011;32044;52.386;13.278;2023-05-10T05:57:31;4.57;;;3.72;;
46322;SDS011;32044;52.386;13.278;2023-05-10T05:59:58;9.30;;;4.35;;
46322;SDS011;32044;52.386;13.278;2023-05-10T06:02:27;9.23;;;4.35;;
46322;SDS011;32044;52.386;13.278;2023-05-10T06:04:55;7.07;;;3.97;;
46322;SDS011;32044;52.386;13.278;2023-05-10T06:07:22;10.57;;;3.72;;
46322;SDS011;32044;52.386;13.278;2023-05-10T06:09:50;6.80;;;4.78;;
46322;SDS011;32044;52.386;13.278;2023-05-10T06:12:17;6.40;;;4.30;;
46322;SDS011;32044;52.386;13.278;2023-05-10T06:14:45;6.47;;;4.00;;
46322;SDS011;32044;52.386;13.278;2023-05-10T06:17:12;6.10;;;3.50;;
46322;SDS011;32044;52.386;13.278;2023-05-10T06:19:41;10.40;;;4.50;;
46322;SDS011;32044;52.386;13.278;2023-05-10T06:22:09;4.25;;;3.67;;
46322;SDS011;32044;52.386;13.278;2023-05-10T06:24:37;6.50;;;3.85;;
46322;SDS011;32044;52.386;13.278;2023-05-10T06:27:04;7.85;;;3.25;;
46322;SDS011;32044;52.386;13.278;2023-05-10T06:29:33;6.55;;;3.85;;
46322;SDS011;32044;52.386;13.278;2023-05-10T06:32:00;10.13;;;3.85;;
46322;SDS011;32044;52.386;13.278;2023-05-10T06:34:28;6.63;;;3.78;;
46322;SDS011;32044;52.386;13.278;2023-05-10T06:36:57;9.57;;;3.13;;
46322;SDS011;32044;52.386;13.278;2023-05-10T06:39:24;6.97;;;3.50;;
46322;SDS011;32044;52.386;13.278;2023-05-10T06:41:52;8.10;;;3.58;;
46322;SDS011;32044;52.386;13.278;2023-05-10T06:44:20;4.47;;;3.35;;
46322;SDS011;32044;52.386;13.278;2023-05-10T06:46:48;12.40;;;3.60;;
46322;SDS011;32044;52.386;13.278;2023-05-10T06:49:16;6.10;;;3.33;;
46322;SDS011;32044;52.386;13.278;2023-05-10T06:51:43;5.43;;;3.22;;
46322;SDS011;32044;52.386;13.278;2023-05-10T06:54:12;6.43;;;3.30;;
46322;SDS011;32044;52.386;13.278;2023-05-10T06:56:40;5.57;;;3.60;;
46322;SDS011;32044;52.386;13.278;2023-05-10T06:59:08;3.90;;;2.85;;
46322;SDS011;32044;52.386;13.278;2023-05-10T07:01:35;5.15;;;2.90;;
46322;SDS011;32044;52.386;13.278;2023-05-10T07:04:03;8.00;;;3.55;;
46322;SDS011;32044;52.386;13.278;2023-05-10T07:06:30;8.27;;;2.83;;
46322;SDS011;32044;52.386;13.278;2023-05-10T07:08:59;8.93;;;3.15;;
46322;SDS011;32044;52.386;13.278;2023-05-10T07:11:28;5.25;;;3.08;;
46322;SDS011;32044;52.386;13.278;2023-05-10T07:13:55;6.95;;;3.38;;
46322;SDS011;32044;52.386;13.278;2023-05-10T07:16:23;5.35;;;3.25;;
46322;SDS011;32044;52.386;13.278;2023-05-10T07:18:50;3.72;;;3.05;;
46322;SDS011;32044;52.386;13.278;2023-05-10T07:21:19;5.65;;;2.83;;
46322;SDS011;32044;52.386;13.278;2023-05-10T07:23:47;6.18;;;2.80;;
46322;SDS011;32044;52.386;13.278;2023-05-10T07:26:14;3.53;;;2.90;;
46322;SDS011;32044;52.386;13.278;2023-05-10T07:28:43;4.82;;;3.40;;
46322;SDS011;32044;52.386;13.278;2023-05-10T07:31:11;9.25;;;2.80;;
46322;SDS011;32044;52.386;13.278;2023-05-10T07:33:38;5.63;;;3.35;;
46322;SDS011;32044;52.386;13.278;2023-05-10T07:36:06;3.28;;;2.85;;
46322;SDS011;32044;52.386;13.278;2023-05-10T07:38:34;5.82;;;3.15;;
46322;SDS011;32044;52.386;13.278;2023-05-10T07:41:05;7.53;;;3.55;;
46322;SDS011;32044;52.386;13.278;2023-05-10T07:43:33;7.18;;;3.13;;
46322;SDS011;32044;52.386;13.278;2023-05-10T07:46:01;3.85;;;3.10;;
46322;SDS011;32044;52.386;13.278;2023-05-10T07:48:29;10.23;;;3.40;;
46322;SDS011;32044;52.386;13.278;2023-05-10T07:50:57;6.25;;;3.22;;
46322;SDS011;32044;52.386;13.278;2023-05-10T07:53:25;3.83;;;2.75;;
46322;SDS011;32044;52.386;13.278;2023-05-10T07:55:54;3.55;;;2.90;;
46322;SDS011;32044;52.386;13.278;2023-05-10T07:58:24;10.00;;;3.00;;
46322;SDS011;32044;52.386;13.278;2023-05-10T08:00:51;5.15;;;2.88;;
46322;SDS011;32044;52.386;13.278;2023-05-10T08:03:20;5.72;;;2.95;;
46322;SDS011;32044;52.386;13.278;2023-05-10T08:05:48;5.45;;;3.00;;
46322;SDS011;32044;52.386;13.278;2023-05-10T08:08:16;9.60;;;3.13;;
46322;SDS011;32044;52.386;13.278;2023-05-10T08:10:43;4.93;;;3.13;;
46322;SDS011;32044;52.386;13.278;2023-05-10T08:13:11;5.30;;;3.15;;
46322;SDS011;32044;52.386;13.278;2023-05-10T08:15:38;5.32;;;3.03;;
46322;SDS011;32044;52.386;13.278;2023-05-10T08:18:06;4.60;;;2.95;;
46322;SDS011;32044;52.386;13.278;2023-05-10T08:20:35;4.70;;;2.75;;
46322;SDS011;32044;52.386;13.278;2023-05-10T08:23:02;4.82;;;3.08;;
46322;SDS011;32044;52.386;13.278;2023-05-10T08:25:30;7.13;;;3.03;;
46322;SDS011;32044;52.386;13.278;2023-05-10T08:27:58;4.32;;;3.00;;
46322;SDS011;32044;52.386;13.278;2023-05-10T08:30:26;3.17;;;2.72;;
46322;SDS011;32044;52.386;13.278;2023-05-10T08:32:53;4.25;;;2.60;;
46322;SDS011;32044;52.386;13.278;2023-05-10T08:35:21;9.55;;;3.05;;
46322;SDS011;32044;52.386;13.278;2023-05-10T08:37:50;4.60;;;2.65;;
46322;SDS011;32044;52.386;13.278;2023-05-10T08:40:18;10.45;;;2.70;;
46322;SDS011;32044;52.386;13.278;2023-05-10T08:42:47;5.47;;;2.65;;
46322;SDS011;32044;52.386;13.278;2023-05-10T08:45:19;4.18;;;2.75;;
46322;SDS011;32044;52.386;13.278;2023-05-10T08:47:47;5.85;;;3.40;;
46322;SDS011;32044;52.386;13.278;2023-05-10T08:50:15;4.10;;;2.88;;
46322;SDS011;32044;52.386;13.278;2023-05-10T08:52:43;5.88;;;2.75;;
46322;SDS011;32044;52.386;13.278;2023-05-10T08:55:15;5.22;;;2.88;;
46322;SDS011;32044;52.386;13.278;2023-05-10T08:57:43;9.30;;;2.95;;
46322;SDS011;32044;52.386;13.278;2023-05-10T09:00:11;8.30;;;3.22;;
46322;SDS011;32044;52.386;13.278;2023-05-10T09:02:40;5.30;;;3.20;;
46322;SDS011;32044;52.386;13.278;2023-05-10T09:05:09;4.78;;;2.97;;
46322;SDS011;32044;52.386;13.278;2023-05-10T09:07:37;9.40;;;2.97;;
46322;SDS011;32044;52.386;13.278;2023-05-10T09:10:05;5.15;;;2.90;;
46322;SDS011;32044;52.386;13.278;2023-05-10T09:12:34;8.60;;;3.00;;
46322;SDS011;32044;52.386;13.278;2023-05-10T09:15:02;6.05;;;3.00;;
46322;SDS011;32044;52.386;13.278;2023-05-10T09:17:31;7.47;;;3.15;;
46322;SDS011;32044;52.386;13.278;2023-05-10T09:19:59;5.85;;;3.10;;
46322;SDS011;32044;52.386;13.278;2023-05-10T09:22:27;9.60;;;2.80;;
46322;SDS011;32044;52.386;13.278;2023-05-10T09:25:07;3.83;;;2.75;;
46322;SDS011;32044;52.386;13.278;2023-05-10T09:27:39;5.03;;;2.92;;
46322;SDS011;32044;52.386;13.278;2023-05-10T09:30:07;7.90;;;3.00;;
46322;SDS011;32044;52.386;13.278;2023-05-10T09:32:36;4.55;;;2.67;;
46322;SDS011;32044;52.386;13.278;2023-05-10T09:35:07;3.45;;;3.00;;
46322;SDS011;32044;52.386;13.278;2023-05-10T09:37:35;6.75;;;3.10;;
46322;SDS011;32044;52.386;13.278;2023-05-10T09:40:06;4.60;;;3.03;;
46322;SDS011;32044;52.386;13.278;2023-05-10T09:42:34;3.40;;;2.85;;
46322;SDS011;32044;52.386;13.278;2023-05-10T09:45:04;7.05;;;2.60;;
46322;SDS011;32044;52.386;13.278;2023-05-10T09:47:32;7.15;;;3.22;;
46322;SDS011;32044;52.386;13.278;2023-05-10T09:50:01;5.95;;;2.55;;
46322;SDS011;32044;52.386;13.278;2023-05-10T09:52:30;4.75;;;2.33;;
46322;SDS011;32044;52.386;13.278;2023-05-10T09:54:58;7.20;;;2.67;;
46322;SDS011;32044;52.386;13.278;2023-05-10T09:57:26;4.15;;;2.83;;
46322;SDS011;32044;52.386;13.278;2023-05-10T09:59:53;4.65;;;2.10;;
46322;SDS011;32044;52.386;13.278;2023-05-10T10:02:23;9.45;;;2.92;;
46322;SDS011;32044;52.386;13.278;2023-05-10T10:04:56;4.90;;;2.50;;
46322;SDS011;32044;52.386;13.278;2023-05-10T10:07:23;3.10;;;2.72;;
46322;SDS011;32044;52.386;13.278;2023-05-10T10:09:52;4.38;;;2.50;;
46322;SDS011;32044;52.386;13.278;2023-05-10T10:12:20;4.93;;;2.67;;
46322;SDS011;32044;52.386;13.278;2023-05-10T10:14:47;5.72;;;2.70;;
46322;SDS011;32044;52.386;13.278;2023-05-10T10:17:17;3.28;;;2.58;;
46322;SDS011;32044;52.386;13.278;2023-05-10T10:19:47;14.63;;;2.67;;
46322;SDS011;32044;52.386;13.278;2023-05-10T10:22:16;3.20;;;2.50;;
46322;SDS011;32044;52.386;13.278;2023-05-10T10:24:44;7.40;;;2.72;;
46322;SDS011;32044;52.386;13.278;2023-05-10T10:27:14;3.65;;;2.40;;
46322;SDS011;32044;52.386;13.278;2023-05-10T10:29:58;7.30;;;2.65;;
46322;SDS011;32044;52.386;13.278;2023-05-10T10:32:31;4.65;;;2.30;;
46322;SDS011;32044;52.386;13.278;2023-05-10T10:35:04;4.53;;;2.70;;
46322;SDS011;32044;52.386;13.278;2023-05-10T10:37:43;7.93;;;2.30;;
46322;SDS011;32044;52.386;13.278;2023-05-10T10:40:27;3.85;;;2.45;;
46322;SDS011;32044;52.386;13.278;2023-05-10T10:43:20;4.68;;;2.70;;
46322;SDS011;32044;52.386;13.278;2023-05-10T10:46:00;7.20;;;2.30;;
46322;SDS011;32044;52.386;13.278;2023-05-10T10:48:36;5.57;;;2.42;;
46322;SDS011;32044;52.386;13.278;2023-05-10T10:51:05;4.18;;;2.33;;
46322;SDS011;32044;52.386;13.278;2023-05-10T10:53:38;4.47;;;2.70;;
46322;SDS011;32044;52.386;13.278;2023-05-10T10:56:06;3.67;;;2.35;;
46322;SDS011;32044;52.386;13.278;2023-05-10T10:58:36;3.40;;;2.45;;
46322;SDS011;32044;52.386;13.278;2023-05-10T11:01:11;4.50;;;2.38;;
46322;SDS011;32044;52.386;13.278;2023-05-10T11:03:40;5.70;;;2.47;;
46322;SDS011;32044;52.386;13.278;2023-05-10T11:06:09;4.60;;;2.80;;
46322;SDS011;32044;52.386;13.278;2023-05-10T11:08:41;6.65;;;2.33;;
46322;SDS011;32044;52.386;13.278;2023-05-10T11:11:09;7.40;;;2.38;;
46322;SDS011;32044;52.386;13.278;2023-05-10T11:16:10;3.60;;;2.50;;
46322;SDS011;32044;52.386;13.278;2023-05-10T11:18:38;8.25;;;2.75;;
46322;SDS011;32044;52.386;13.278;2023-05-10T11:21:09;8.48;;;2.33;;
46322;SDS011;32044;52.386;13.278;2023-05-10T11:23:50;6.18;;;2.47;;
46322;SDS011;32044;52.386;13.278;2023-05-10T11:26:18;4.47;;;2.60;;
46322;SDS011;32044;52.386;13.278;2023-05-10T11:28:49;3.03;;;2.00;;
46322;SDS011;32044;52.386;13.278;2023-05-10T11:31:17;5.30;;;2.50;;
46322;SDS011;32044;52.386;13.278;2023-05-10T11:33:46;2.45;;;2.10;;
46322;SDS011;32044;52.386;13.278;2023-05-10T11:36:18;5.05;;;2.90;;
46322;SDS011;32044;52.386;13.278;2023-05-10T11:38:46;5.82;;;2.35;;
46322;SDS011;32044;52.386;13.278;2023-05-10T11:41:15;2.42;;;2.03;;
46322;SDS011;32044;52.386;13.278;2023-05-10T11:43:45;3.50;;;2.42;;
46322;SDS011;32044;52.386;13.278;2023-05-10T11:46:17;5.93;;;2.67;;
46322;SDS011;32044;52.386;13.278;2023-05-10T11:48:46;3.38;;;1.98;;
46322;SDS011;32044;52.386;13.278;2023-05-10T11:51:14;4.63;;;2.65;;
46322;SDS011;32044;52.386;13.278;2023-05-10T11:53:43;3.70;;;2.42;;
46322;SDS011;32044;52.386;13.278;2023-05-10T11:56:11;5.35;;;2.63;;
46322;SDS011;32044;52.386;13.278;2023-05-10T11:58:41;3.15;;;2.30;;
46322;SDS011;32044;52.386;13.278;2023-05-10T12:01:09;5.55;;;2.30;;
46322;SDS011;32044;52.386;13.278;2023-05-10T12:03:37;5.18;;;2.53;;
46322;SDS011;32044;52.386;13.278;2023-05-10T12:06:05;2.60;;;2.40;;
46322;SDS011;32044;52.386;13.278;2023-05-10T12:08:33;5.15;;;2.70;;
46322;SDS011;32044;52.386;13.278;2023-05-10T12:11:07;5.00;;;2.30;;
46322;SDS011;32044;52.386;13.278;2023-05-10T12:13:37;7.30;;;2.00;;
46322;SDS011;32044;52.386;13.278;2023-05-10T12:16:12;5.53;;;2.30;;
46322;SDS011;32044;52.386;13.278;2023-05-10T12:18:40;3.13;;;2.45;;
46322;SDS011;32044;52.386;13.278;2023-05-10T12:21:09;2.63;;;2.20;;
46322;SDS011;32044;52.386;13.278;2023-05-10T12:23:37;4.82;;;2.28;;
46322;SDS011;32044;52.386;13.278;2023-05-10T12:26:07;5.93;;;2.20;;
46322;SDS011;32044;52.386;13.278;2023-05-10T12:28:36;3.42;;;2.30;;
46322;SDS011;32044;52.386;13.278;2023-05-10T12:31:05;2.60;;;2.03;;
46322;SDS011;32044;52.386;13.278;2023-05-10T12:33:36;6.97;;;2.40;;
46322;SDS011;32044;52.386;13.278;2023-05-10T12:36:05;3.38;;;2.30;;
46322;SDS011;32044;52.386;13.278;2023-05-10T12:38:34;12.20;;;2.40;;
46322;SDS011;32044;52.386;13.278;2023-05-10T12:41:04;3.03;;;2.30;;
46322;SDS011;32044;52.386;13.278;2023-05-10T12:43:35;6.47;;;2.50;;
46322;SDS011;32044;52.386;13.278;2023-05-10T12:46:06;2.92;;;2.38;;
46322;SDS011;32044;52.386;13.278;2023-05-10T12:48:35;4.75;;;2.47;;
46322;SDS011;32044;52.386;13.278;2023-05-10T12:51:03;3.60;;;2.15;;
46322;SDS011;32044;52.386;13.278;2023-05-10T12:56:02;6.00;;;2.00;;
46322;SDS011;32044;52.386;13.278;2023-05-10T12:58:31;3.80;;;2.22;;
46322;SDS011;32044;52.386;13.278;2023-05-10T13:03:29;6.75;;;2.75;;
46322;SDS011;32044;52.386;13.278;2023-05-10T13:05:56;4.45;;;2.60;;
46322;SDS011;32044;52.386;13.278;2023-05-10T13:08:24;3.70;;;2.25;;
46322;SDS011;32044;52.386;13.278;2023-05-10T13:10:51;5.13;;;2.38;;
46322;SDS011;32044;52.386;13.278;2023-05-10T13:13:19;2.50;;;2.15;;
46322;SDS011;32044;52.386;13.278;2023-05-10T13:15:48;10.02;;;2.80;;
46322;SDS011;32044;52.386;13.278;2023-05-10T13:18:15;4.40;;;2.40;;
46322;SDS011;32044;52.386;13.278;2023-05-10T13:20:43;4.63;;;2.22;;
46322;SDS011;32044;52.386;13.278;2023-05-10T13:23:11;7.95;;;2.85;;
46322;SDS011;32044;52.386;13.278;2023-05-10T13:25:38;2.42;;;2.13;;
46322;SDS011;32044;52.386;13.278;2023-05-10T13:28:06;2.53;;;2.15;;
46322;SDS011;32044;52.386;13.278;2023-05-10T13:30:34;3.80;;;2.45;;
46322;SDS011;32044;52.386;13.278;2023-05-10T13:33:03;3.50;;;2.28;;
46322;SDS011;32044;52.386;13.278;2023-05-10T13:35:30;4.22;;;2.08;;
46322;SDS011;32044;52.386;13.278;2023-05-10T13:37:58;4.72;;;2.95;;
46322;SDS011;32044;52.386;13.278;2023-05-10T13:40:25;4.50;;;2.60;;
46322;SDS011;32044;52.386;13.278;2023-05-10T13:42:54;4.82;;;2.13;;
46322;SDS011;32044;52.386;13.278;2023-05-10T13:45:21;3.08;;;2.70;;
46322;SDS011;32044;52.386;13.278;2023-05-10T13:47:49;5.07;;;2.65;;
46322;SDS011;32044;52.386;13.278;2023-05-10T13:50:18;4.10;;;2.70;;
46322;SDS011;32044;52.386;13.278;2023-05-10T13:52:45;4.10;;;2.65;;
46322;SDS011;32044;52.386;13.278;2023-05-10T13:55:13;3.70;;;2.90;;
46322;SDS011;32044;52.386;13.278;2023-05-10T13:57:41;5.28;;;2.88;;
46322;SDS011;32044;52.386;13.278;2023-05-10T14:00:09;3.63;;;3.03;;
46322;SDS011;32044;52.386;13.278;2023-05-10T14:02:37;4.53;;;2.78;;
46322;SDS011;32044;52.386;13.278;2023-05-10T14:05:05;8.25;;;2.47;;
46322;SDS011;32044;52.386;13.278;2023-05-10T14:07:34;4.10;;;2.80;;
46322;SDS011;32044;52.386;13.278;2023-05-10T14:10:02;4.53;;;2.58;;
46322;SDS011;32044;52.386;13.278;2023-05-10T14:12:30;5.22;;;3.00;;
46322;SDS011;32044;52.386;13.278;2023-05-10T14:14:57;5.82;;;3.28;;
46322;SDS011;32044;52.386;13.278;2023-05-10T14:17:25;6.90;;;2.53;;
46322;SDS011;32044;52.386;13.278;2023-05-10T14:19:52;4.68;;;2.85;;
46322;SDS011;32044;52.386;13.278;2023-05-10T14:22:20;3.00;;;2.50;;
46322;SDS011;32044;52.386;13.278;2023-05-10T14:24:50;3.30;;;2.83;;
46322;SDS011;32044;52.386;13.278;2023-05-10T14:27:17;4.25;;;2.70;;
46322;SDS011;32044;52.386;13.278;2023-05-10T14:29:45;3.80;;;2.72;;
46322;SDS011;32044;52.386;13.278;2023-05-10T14:32:13;6.72;;;2.67;;
46322;SDS011;32044;52.386;13.278;2023-05-10T14:34:40;7.63;;;2.55;;
46322;SDS011;32044;52.386;13.278;2023-05-10T14:37:09;4.40;;;2.58;;
46322;SDS011;32044;52.386;13.278;2023-05-10T14:39:37;6.03;;;2.45;;
46322;SDS011;32044;52.386;13.278;2023-05-10T14:42:06;3.20;;;2.60;;
46322;SDS011;32044;52.386;13.278;2023-05-10T14:44:34;4.47;;;2.72;;
46322;SDS011;32044;52.386;13.278;2023-05-10T14:47:02;3.17;;;2.42;;
46322;SDS011;32044;52.386;13.278;2023-05-10T14:49:29;4.78;;;2.80;;